Time;durP1;ratioP1;P1;durP2;ratioP2;P2;SDS_P1;SDS_P2;PMS_P1;PMS_P2;Temp;Humidity;BMP_temperature;BMP_pressure;BME280_temperature;BME280_humidity;BME280_pressure;Samples;Min_cycle;Max_cycle;Signal;HPM_P1;HPM_P2
2020/12/16 00:02:19;;;;;;;18.60;15.50;;;9.40;83.40;;;;;;5073446;28;20128;-62
2020/12/16 00:04:46;;;;;;;20.20;15.25;;;9.30;83.00;;;;;;5073426;28;20518;-62
2020/12/16 00:07:12;;;;;;;19.52;15.20;;;9.30;83.00;;;;;;5073817;28;20060;-62
2020/12/16 00:09:37;;;;;;;18.02;15.50;;;9.30;83.30;;;;;;5073251;28;20036;-62
2020/12/16 00:12:03;;;;;;;18.98;15.20;;;9.20;83.40;;;;;;5073181;28;20086;-62
2020/12/16 00:14:29;;;;;;;20.60;15.90;;;9.10;83.50;;;;;;5072579;28;20048;-61
2020/12/16 00:16:58;;;;;;;16.95;14.75;;;9.20;83.60;;;;;;5071845;28;20040;-63
2020/12/16 00:19:23;;;;;;;21.10;16.60;;;9.10;83.70;;;;;;5060523;28;20033;-61
2020/12/16 00:21:49;;;;;;;19.27;15.45;;;9.10;83.80;;;;;;5066005;28;20036;-62
2020/12/16 00:24:15;;;;;;;20.02;15.50;;;9.10;83.70;;;;;;5062849;28;20033;-62
2020/12/16 00:26:42;;;;;;;19.83;15.52;;;9.10;83.70;;;;;;5043037;28;20768;-63
2020/12/16 00:29:09;;;;;;;19.60;16.27;;;9.20;83.60;;;;;;5058428;28;20668;-62
2020/12/16 00:31:36;;;;;;;19.60;16.90;;;9.20;83.40;;;;;;5055367;28;20048;-63
2020/12/16 00:34:01;;;;;;;21.05;17.65;;;9.20;83.80;;;;;;5072618;28;20114;-62
2020/12/16 00:36:27;;;;;;;21.45;17.88;;;9.10;84.00;;;;;;5073185;28;20063;-62
2020/12/16 00:38:52;;;;;;;20.98;16.95;;;9.20;84.60;;;;;;5055253;28;20479;-62
2020/12/16 00:41:18;;;;;;;18.85;15.35;;;9.20;83.70;;;;;;5054961;28;20036;-62
2020/12/16 00:43:43;;;;;;;19.13;16.17;;;9.30;83.50;;;;;;5071963;28;20048;-62
2020/12/16 00:46:09;;;;;;;20.35;16.13;;;9.30;83.20;;;;;;5072750;28;20046;-62
2020/12/16 00:48:35;;;;;;;19.35;15.05;;;9.30;83.30;;;;;;5084482;28;20036;-63
2020/12/16 00:51:01;;;;;;;20.52;16.67;;;9.30;83.20;;;;;;5074027;28;20119;-62
2020/12/16 00:53:26;;;;;;;19.25;16.33;;;9.50;82.70;;;;;;5074603;28;20040;-63
2020/12/16 00:55:52;;;;;;;20.73;16.80;;;9.40;82.60;;;;;;5074068;28;20036;-63
2020/12/16 00:58:18;;;;;;;22.10;16.88;;;9.40;82.90;;;;;;5068679;28;20431;-63
2020/12/16 01:00:43;;;;;;;21.50;16.70;;;9.30;83.20;;;;;;5065177;28;20068;-61
2020/12/16 01:03:09;;;;;;;21.00;17.75;;;9.30;83.30;;;;;;5054254;28;20155;-63
2020/12/16 01:05:35;;;;;;;22.02;16.50;;;9.20;83.90;;;;;;5063704;28;20101;-63
2020/12/16 01:08:00;;;;;;;20.40;16.80;;;9.20;84.10;;;;;;5045848;28;20624;-62
2020/12/16 01:10:26;;;;;;;21.65;17.40;;;9.20;83.90;;;;;;5061820;28;20052;-63
2020/12/16 01:12:51;;;;;;;20.80;16.27;;;9.20;83.50;;;;;;5041678;28;20036;-63
2020/12/16 01:15:19;;;;;;;19.42;16.08;;;9.20;83.50;;;;;;5063842;28;20126;-63
2020/12/16 01:17:46;;;;;;;19.58;15.98;;;9.30;83.50;;;;;;5071922;28;20131;-61
2020/12/16 01:20:13;;;;;;;21.90;17.98;;;9.30;83.40;;;;;;5071878;28;20037;-62
2020/12/16 01:22:42;;;;;;;20.52;16.20;;;9.40;83.20;;;;;;5072533;28;20037;-62
2020/12/16 01:25:09;;;;;;;19.75;16.40;;;9.40;83.00;;;;;;5071187;28;20048;-62
2020/12/16 01:27:35;;;;;;;20.52;17.08;;;9.30;83.10;;;;;;5071627;28;20044;-63
2020/12/16 01:30:02;;;;;;;22.90;17.83;;;9.30;83.50;;;;;;5071859;28;20119;-62
2020/12/16 01:32:28;;;;;;;24.08;19.52;;;9.30;83.40;;;;;;5064272;28;20044;-59
2020/12/16 01:34:54;;;;;;;22.85;18.58;;;9.40;83.60;;;;;;5056977;28;20048;-63
2020/12/16 01:37:20;;;;;;;23.52;18.02;;;9.40;83.70;;;;;;5063035;28;20116;-63
2020/12/16 01:39:46;;;;;;;22.30;17.95;;;9.40;83.80;;;;;;5068041;28;20032;-63
2020/12/16 01:42:14;;;;;;;22.45;18.15;;;9.30;83.90;;;;;;5038347;28;20080;-63
2020/12/16 01:44:39;;;;;;;21.73;17.88;;;9.40;83.90;;;;;;5070932;28;20071;-61
2020/12/16 01:47:05;;;;;;;20.85;17.50;;;9.40;83.90;;;;;;5071258;28;20133;-61
2020/12/16 01:49:31;;;;;;;25.60;20.08;;;9.40;83.80;;;;;;5073522;28;20501;-62
2020/12/16 01:52:01;;;;;;;23.30;18.25;;;9.30;84.00;;;;;;5079154;28;20529;-60
2020/12/16 01:54:29;;;;;;;21.88;17.77;;;9.30;83.90;;;;;;5071456;28;20070;-62
2020/12/16 01:56:56;;;;;;;23.85;18.35;;;9.40;83.80;;;;;;5071438;28;20503;-62
2020/12/16 01:59:23;;;;;;;21.33;18.35;;;9.40;83.80;;;;;;5062425;28;20052;-62
2020/12/16 02:01:54;;;;;;;23.00;18.02;;;9.30;83.90;;;;;;5070639;28;20041;-62
2020/12/16 02:04:22;;;;;;;24.35;19.20;;;9.40;83.80;;;;;;5071352;28;20127;-61
2020/12/16 02:06:50;;;;;;;25.55;19.30;;;9.40;83.80;;;;;;5071202;28;20031;-62
2020/12/16 02:09:18;;;;;;;25.20;19.98;;;9.40;83.60;;;;;;5070810;28;20056;-63
2020/12/16 02:11:43;;;;;;;21.75;18.23;;;9.40;83.80;;;;;;5071724;28;20166;-63
2020/12/16 02:14:10;;;;;;;22.80;18.92;;;9.40;83.80;;;;;;5070901;28;20155;-62
2020/12/16 02:16:37;;;;;;;24.85;19.48;;;9.40;83.80;;;;;;5053162;28;20027;-61
2020/12/16 02:19:04;;;;;;;23.33;19.23;;;9.40;84.10;;;;;;5068294;28;20120;-62
2020/12/16 02:21:29;;;;;;;23.95;19.17;;;9.40;84.10;;;;;;5066217;28;20082;-61
2020/12/16 02:24:07;;;;;;;23.02;19.10;;;9.30;84.10;;;;;;5064898;28;20049;-64
2020/12/16 02:26:34;;;;;;;22.23;18.42;;;9.40;83.90;;;;;;5071829;28;20025;-58
2020/12/16 02:29:00;;;;;;;24.08;19.63;;;9.40;84.00;;;;;;5070995;28;20059;-62
2020/12/16 02:31:29;;;;;;;23.15;18.85;;;9.40;83.80;;;;;;5069339;28;20041;-63
2020/12/16 02:33:55;;;;;;;22.70;18.98;;;9.40;83.80;;;;;;5055112;28;20067;-62
2020/12/16 02:36:21;;;;;;;23.85;18.80;;;9.40;83.90;;;;;;5066165;28;20510;-63
2020/12/16 02:38:48;;;;;;;24.13;19.90;;;9.50;83.90;;;;;;5065081;28;20037;-62
2020/12/16 02:41:14;;;;;;;24.33;19.08;;;9.40;84.10;;;;;;5058895;28;20044;-62
2020/12/16 02:43:39;;;;;;;23.50;19.58;;;9.40;84.10;;;;;;5060742;28;20039;-62
2020/12/16 02:46:05;;;;;;;27.73;20.42;;;9.40;84.30;;;;;;5059007;28;20028;-62
2020/12/16 02:48:31;;;;;;;22.30;18.95;;;9.30;84.50;;;;;;5063685;28;20505;-62
2020/12/16 02:50:57;;;;;;;27.13;19.67;;;9.40;84.30;;;;;;5060601;28;20041;-62
2020/12/16 02:53:22;;;;;;;22.05;18.25;;;9.40;84.20;;;;;;5058349;28;20041;-63
2020/12/16 02:55:48;;;;;;;23.40;18.83;;;9.40;84.10;;;;;;5057876;28;20029;-62
2020/12/16 02:58:13;;;;;;;22.73;18.60;;;9.40;84.10;;;;;;5061590;28;20056;-62
2020/12/16 03:00:39;;;;;;;24.58;19.35;;;9.40;84.20;;;;;;5038883;28;20518;-61
2020/12/16 03:03:05;;;;;;;25.65;20.50;;;9.40;84.30;;;;;;5072034;28;20390;-63
2020/12/16 03:05:31;;;;;;;25.52;19.77;;;9.40;84.10;;;;;;5070852;28;20424;-63
2020/12/16 03:07:57;;;;;;;24.85;20.77;;;9.50;84.10;;;;;;5071441;28;20082;-61
2020/12/16 03:10:22;;;;;;;26.80;19.90;;;9.50;84.00;;;;;;5040898;28;20041;-62
2020/12/16 03:12:48;;;;;;;27.90;20.15;;;9.50;83.90;;;;;;5050922;28;20548;-62
2020/12/16 03:15:13;;;;;;;27.00;20.42;;;9.50;84.20;;;;;;5074226;28;20510;-61
2020/12/16 03:17:39;;;;;;;24.55;19.92;;;9.50;83.90;;;;;;5073494;28;20483;-62
2020/12/16 03:20:04;;;;;;;27.25;20.98;;;9.60;83.90;;;;;;5073950;28;20110;-62
2020/12/16 03:22:30;;;;;;;26.73;20.67;;;9.60;83.80;;;;;;5075068;28;20124;-62
2020/12/16 03:24:55;;;;;;;26.30;20.45;;;9.50;84.10;;;;;;5074320;28;20039;-60
2020/12/16 03:27:21;;;;;;;26.75;20.42;;;9.50;84.20;;;;;;5074562;28;20044;-62
2020/12/16 03:29:47;;;;;;;25.10;19.15;;;9.50;84.40;;;;;;5074602;28;20391;-61
2020/12/16 03:32:13;;;;;;;23.60;20.05;;;9.50;84.40;;;;;;5066027;28;20047;-59
2020/12/16 03:34:39;;;;;;;29.77;22.00;;;9.50;84.50;;;;;;5054384;28;20037;-61
2020/12/16 03:37:04;;;;;;;25.20;21.17;;;9.50;84.50;;;;;;5074400;28;20032;-58
2020/12/16 03:39:30;;;;;;;26.65;21.23;;;9.50;84.50;;;;;;5073668;28;20041;-62
2020/12/16 03:41:55;;;;;;;26.98;21.58;;;9.50;84.50;;;;;;5073881;28;20044;-62
2020/12/16 03:44:21;;;;;;;27.67;22.58;;;9.50;84.70;;;;;;5073322;28;20048;-62
2020/12/16 03:46:51;;;;;;;30.30;23.98;;;9.50;84.60;;;;;;5073760;28;20040;-63
2020/12/16 03:49:16;;;;;;;25.02;20.65;;;9.50;84.90;;;;;;5091772;28;20090;-61
2020/12/16 03:51:42;;;;;;;27.27;22.52;;;9.50;84.80;;;;;;5074805;28;20438;-60
2020/12/16 03:54:09;;;;;;;29.20;21.77;;;9.50;85.30;;;;;;5073904;28;20115;-62
2020/12/16 03:56:34;;;;;;;28.35;22.45;;;9.60;84.60;;;;;;5073748;28;20032;-62
2020/12/16 03:59:00;;;;;;;28.98;23.38;;;9.50;84.70;;;;;;5073793;28;20036;-62
2020/12/16 04:01:25;;;;;;;25.65;21.52;;;9.50;84.70;;;;;;5061686;28;20067;-62
2020/12/16 04:03:51;;;;;;;31.30;23.88;;;9.50;84.90;;;;;;5073574;28;20032;-62
2020/12/16 04:06:17;;;;;;;29.55;23.20;;;9.40;85.10;;;;;;5056205;28;20032;-62
2020/12/16 04:08:44;;;;;;;30.17;23.40;;;9.50;85.20;;;;;;5073570;28;20524;-63
2020/12/16 04:11:16;;;;;;;26.65;21.77;;;9.50;85.00;;;;;;5072696;28;20544;-63
2020/12/16 04:13:42;;;;;;;28.75;22.48;;;9.50;85.00;;;;;;5056283;28;20045;-63
2020/12/16 04:16:13;;;;;;;28.58;21.58;;;9.50;84.80;;;;;;5075871;28;20036;-62
2020/12/16 04:18:39;;;;;;;30.08;22.98;;;9.50;84.80;;;;;;5074102;28;20121;-62
2020/12/16 04:21:06;;;;;;;26.48;21.20;;;9.60;84.80;;;;;;5073647;28;20364;-60
2020/12/16 04:23:32;;;;;;;25.33;21.58;;;9.60;84.70;;;;;;5072765;28;20372;-60
2020/12/16 04:26:05;;;;;;;25.80;20.55;;;9.60;84.60;;;;;;5072475;28;20462;-59
2020/12/16 04:28:33;;;;;;;26.60;20.58;;;9.60;84.50;;;;;;5073662;28;20032;-62
2020/12/16 04:31:00;;;;;;;27.83;23.33;;;9.60;84.40;;;;;;5062902;28;20391;-59
2020/12/16 04:33:25;;;;;;;28.33;22.60;;;9.60;84.20;;;;;;5073290;28;20036;-62
2020/12/16 04:35:52;;;;;;;27.20;22.00;;;9.60;84.40;;;;;;5038582;28;20040;-61
2020/12/16 04:38:17;;;;;;;24.50;19.85;;;9.70;84.10;;;;;;5073057;28;20044;-62
2020/12/16 04:40:44;;;;;;;28.17;20.52;;;9.70;84.10;;;;;;5072476;28;20120;-63
2020/12/16 04:43:16;;;;;;;24.45;20.52;;;9.70;84.00;;;;;;5038772;28;20028;-63
2020/12/16 04:45:42;;;;;;;26.77;21.75;;;9.70;84.00;;;;;;5072411;28;20029;-63
2020/12/16 04:48:09;;;;;;;25.45;20.98;;;9.70;83.80;;;;;;5078634;28;20020;-62
2020/12/16 04:50:35;;;;;;;25.58;19.77;;;9.60;84.30;;;;;;5055261;28;20029;-63
2020/12/16 04:53:10;;;;;;;25.13;21.10;;;9.60;84.20;;;;;;5072685;28;20456;-64
2020/12/16 04:55:36;;;;;;;;;;;9.60;84.10;;;;;;5054976;28;20048;-62
2020/12/16 04:58:03;;;;;;;26.15;20.52;;;9.60;84.20;;;;;;5072692;28;20270;-63
2020/12/16 05:00:30;;;;;;;27.67;20.25;;;9.60;84.20;;;;;;5072127;28;20503;-63
2020/12/16 05:03:07;;;;;;;25.13;19.30;;;9.70;84.00;;;;;;5054874;28;20075;-61
2020/12/16 05:05:33;;;;;;;24.48;20.02;;;9.70;84.10;;;;;;5072563;28;20498;-62
2020/12/16 05:08:08;;;;;;;27.50;21.77;;;9.70;84.00;;;;;;5072095;28;20067;-61
2020/12/16 05:10:36;;;;;;;34.15;27.30;;;9.70;83.90;;;;;;5071915;28;20383;-60
2020/12/16 05:13:12;;;;;;;32.47;24.67;;;9.60;83.90;;;;;;5073090;28;20036;-62
2020/12/16 05:15:40;;;;;;;29.33;23.08;;;9.70;84.00;;;;;;5072065;28;20025;-61
2020/12/16 05:18:21;;;;;;;25.95;20.60;;;9.70;83.90;;;;;;5072698;28;20162;-60
2020/12/16 05:20:51;;;;;;;23.60;18.95;;;9.70;83.80;;;;;;5072580;28;20028;-63
2020/12/16 05:23:17;;;;;;;24.42;20.92;;;9.70;83.80;;;;;;5071942;28;20040;-62
2020/12/16 05:26:02;;;;;;;26.80;21.00;;;9.60;83.80;;;;;;5071652;28;20040;-63
2020/12/16 05:28:30;;;;;;;27.60;21.17;;;9.70;84.00;;;;;;5071800;28;20104;-63
2020/12/16 05:30:57;;;;;;;24.65;20.33;;;9.70;84.00;;;;;;5072022;28;20448;-63
2020/12/16 05:33:23;;;;;;;27.45;21.13;;;9.60;83.90;;;;;;5066525;28;20035;-62
2020/12/16 05:35:52;;;;;;;25.98;21.60;;;9.60;84.10;;;;;;5070957;28;20036;-63
2020/12/16 05:38:18;;;;;;;25.98;20.30;;;9.60;84.40;;;;;;5072445;28;20033;-63
2020/12/16 05:40:44;;;;;;;27.00;21.23;;;9.60;84.30;;;;;;5061324;28;20041;-63
2020/12/16 05:43:25;;;;;;;28.00;21.35;;;9.60;84.50;;;;;;5071755;28;20052;-63
2020/12/16 05:45:51;;;;;;;27.73;21.95;;;9.60;84.60;;;;;;5071526;28;20037;-62
2020/12/16 05:48:17;;;;;;;28.52;21.58;;;9.50;84.80;;;;;;5082639;28;20059;-61
2020/12/16 05:50:55;;;;;;;25.92;21.13;;;9.60;84.70;;;;;;5090278;28;20043;-62
2020/12/16 05:53:21;;;;;;;28.73;22.20;;;9.60;84.50;;;;;;5073266;28;20039;-63
2020/12/16 05:55:52;;;;;;;53.38;38.00;;;9.60;84.60;;;;;;5071688;28;20037;-63
2020/12/16 05:58:20;;;;;;;34.75;26.20;;;9.70;84.50;;;;;;5071534;28;20049;-63
2020/12/16 06:00:49;;;;;;;29.90;22.58;;;9.60;84.60;;;;;;5071630;28;20041;-63
2020/12/16 06:03:19;;;;;;;26.70;20.65;;;9.60;84.60;;;;;;5071343;28;20086;-62
2020/12/16 06:05:46;;;;;;;26.42;21.60;;;9.70;84.50;;;;;;5071748;28;20033;-62
2020/12/16 06:08:12;;;;;;;29.63;23.02;;;9.70;84.40;;;;;;5072065;28;20059;-62
2020/12/16 06:10:42;;;;;;;28.52;22.48;;;9.70;84.30;;;;;;5066279;28;20044;-63
2020/12/16 06:13:12;;;;;;;25.92;20.95;;;9.70;84.30;;;;;;5071345;28;20090;-63
2020/12/16 06:15:51;;;;;;;26.13;19.70;;;9.70;84.10;;;;;;5053431;28;20033;-63
2020/12/16 06:18:18;;;;;;;23.90;19.80;;;9.70;84.00;;;;;;5071192;28;20020;-61
2020/12/16 06:20:44;;;;;;;27.67;20.30;;;9.70;83.90;;;;;;5071563;28;20037;-62
2020/12/16 06:23:34;;;;;;;25.85;21.15;;;9.80;83.90;;;;;;5071765;28;20078;-62
2020/12/16 06:26:02;;;;;;;27.98;22.38;;;9.80;83.70;;;;;;5044195;28;20045;-63
2020/12/16 06:28:28;;;;;;;26.77;20.58;;;9.70;83.70;;;;;;5063031;28;20048;-62
2020/12/16 06:31:00;;;;;;;26.38;21.65;;;9.70;83.90;;;;;;5070488;28;20041;-62
2020/12/16 06:33:47;;;;;;;25.70;21.40;;;9.70;84.00;;;;;;5036680;28;20040;-62
2020/12/16 06:36:13;;;;;;;24.88;20.38;;;9.80;84.10;;;;;;5068180;28;20549;-62
2020/12/16 06:38:45;;;;;;;25.90;20.27;;;9.80;84.00;;;;;;5071211;28;20032;-62
2020/12/16 06:41:23;;;;;;;27.00;21.52;;;9.80;83.90;;;;;;5072193;28;20125;-63
2020/12/16 06:43:51;;;;;;;25.85;20.10;;;9.80;83.90;;;;;;5070676;28;20044;-63
2020/12/16 06:46:32;;;;;;;28.27;22.80;;;9.80;83.80;;;;;;5071168;28;20028;-62
2020/12/16 06:49:00;;;;;;;26.23;21.75;;;9.80;83.70;;;;;;5087079;28;20024;-63
2020/12/16 06:51:27;;;;;;;27.83;22.25;;;9.80;83.80;;;;;;5075526;28;20085;-63
2020/12/16 06:54:11;;;;;;;29.02;22.50;;;9.80;83.90;;;;;;5066483;28;20040;-63
2020/12/16 06:56:38;;;;;;;28.25;22.02;;;9.90;83.70;;;;;;5057753;28;20048;-62
2020/12/16 06:59:04;;;;;;;35.58;24.23;;;9.90;83.90;;;;;;5076126;28;20056;-62
2020/12/16 07:01:30;;;;;;;37.65;24.42;;;9.90;83.60;;;;;;5063951;28;20046;-62
2020/12/16 07:03:56;;;;;;;50.85;35.00;;;9.90;83.80;;;;;;5074170;28;20048;-62
2020/12/16 07:06:27;;;;;;;66.28;38.03;;;9.90;83.80;;;;;;5074880;28;20101;-61
2020/12/16 07:09:14;;;;;;;40.22;27.38;;;9.70;84.00;;;;;;5074477;28;20445;-62
2020/12/16 07:11:41;;;;;;;34.08;23.10;;;9.80;84.00;;;;;;5074896;28;20055;-62
2020/12/16 07:14:12;;;;;;;29.85;23.15;;;9.80;84.00;;;;;;5075526;28;20028;-63
2020/12/16 07:16:38;;;;;;;32.08;23.20;;;9.80;84.10;;;;;;5074831;28;20620;-60
2020/12/16 07:19:03;;;;;;;26.85;22.33;;;9.70;84.10;;;;;;5075126;28;20120;-62
2020/12/16 07:21:33;;;;;;;34.55;24.48;;;9.80;84.10;;;;;;5077268;28;20086;-62
2020/12/16 07:24:04;;;;;;;32.22;25.15;;;9.80;84.00;;;;;;5076082;28;20065;-62
2020/12/16 07:26:51;;;;;;;30.63;24.13;;;9.80;84.10;;;;;;5076482;28;20033;-63
2020/12/16 07:29:34;;;;;;;31.77;23.77;;;9.70;84.20;;;;;;5074451;28;20029;-63
2020/12/16 07:32:13;;;;;;;29.88;24.25;;;9.80;84.40;;;;;;5047240;28;20081;-62
2020/12/16 07:34:41;;;;;;;30.73;23.95;;;9.80;84.50;;;;;;5068881;28;20072;-63
2020/12/16 07:37:07;;;;;;;29.80;23.58;;;9.80;84.30;;;;;;5074407;28;20067;-62
2020/12/16 07:39:33;;;;;;;33.20;25.02;;;9.90;84.30;;;;;;5074612;28;20060;-61
2020/12/16 07:42:00;;;;;;;31.10;23.92;;;9.80;84.30;;;;;;5066793;28;20479;-60
2020/12/16 07:44:26;;;;;;;30.15;25.08;;;9.80;84.30;;;;;;5073254;28;20044;-62
2020/12/16 07:46:58;;;;;;;32.47;25.38;;;9.80;84.10;;;;;;5074051;28;20112;-62
2020/12/16 07:49:26;;;;;;;30.38;23.38;;;9.80;84.10;;;;;;5070798;28;20040;-62
2020/12/16 07:51:59;;;;;;;33.10;24.60;;;9.90;84.20;;;;;;5074190;28;20115;-62
2020/12/16 07:54:25;;;;;;;32.10;24.92;;;9.90;83.90;;;;;;5074059;28;20079;-61
2020/12/16 07:56:50;;;;;;;31.92;24.20;;;9.80;84.00;;;;;;5068275;28;20479;-63
2020/12/16 07:59:19;;;;;;;33.50;24.35;;;9.80;84.00;;;;;;5073065;28;20372;-62
2020/12/16 08:01:44;;;;;;;35.03;25.58;;;9.90;84.00;;;;;;5073395;28;20043;-59
2020/12/16 08:04:16;;;;;;;36.90;27.92;;;10.00;83.80;;;;;;5073567;28;20036;-64
2020/12/16 08:06:42;;;;;;;36.55;27.08;;;9.90;83.70;;;;;;5069090;28;20086;-62
2020/12/16 08:09:08;;;;;;;34.90;25.77;;;9.90;83.70;;;;;;5073663;28;20028;-62
2020/12/16 08:11:37;;;;;;;33.97;25.63;;;9.90;83.80;;;;;;5073026;28;20025;-63
2020/12/16 08:14:07;;;;;;;32.33;24.70;;;9.90;83.70;;;;;;5072903;28;20036;-63
2020/12/16 08:16:34;;;;;;;31.17;23.90;;;10.00;83.60;;;;;;5074736;28;20041;-63
2020/12/16 08:19:01;;;;;;;32.88;24.42;;;9.90;83.40;;;;;;5069955;28;20063;-62
2020/12/16 08:21:27;;;;;;;31.38;24.77;;;9.90;83.50;;;;;;5074010;28;20035;-61
2020/12/16 08:23:54;;;;;;;28.75;24.38;;;9.80;83.60;;;;;;5056278;28;20032;-63
2020/12/16 08:26:21;;;;;;;29.92;24.38;;;9.80;83.70;;;;;;5072881;28;20040;-63
2020/12/16 08:28:51;;;;;;;30.35;24.65;;;9.70;83.60;;;;;;5066360;28;20032;-63
2020/12/16 08:31:19;;;;;;;29.60;24.13;;;9.80;83.60;;;;;;5073355;28;20048;-61
2020/12/16 08:33:48;;;;;;;29.20;22.42;;;9.90;83.40;;;;;;5071071;28;20403;-63
2020/12/16 08:36:20;;;;;;;30.10;22.85;;;9.90;83.20;;;;;;5072888;28;20032;-63
2020/12/16 08:38:48;;;;;;;29.00;22.55;;;9.90;83.00;;;;;;5074398;28;20380;-63
2020/12/16 08:41:28;;;;;;;30.35;22.65;;;10.00;82.90;;;;;;5073301;28;20364;-63
2020/12/16 08:43:55;;;;;;;39.17;27.20;;;10.00;82.90;;;;;;5029150;28;20045;-63
2020/12/16 08:46:23;;;;;;;31.27;22.65;;;10.00;82.80;;;;;;5054563;28;20035;-63
2020/12/16 08:49:01;;;;;;;29.98;22.10;;;9.90;82.90;;;;;;5073712;28;20455;-63
2020/12/16 08:51:37;;;;;;;27.55;20.95;;;9.80;83.10;;;;;;5073267;28;20060;-63
2020/12/16 08:54:08;;;;;;;26.75;20.65;;;9.80;82.90;;;;;;5072834;28;20032;-62
2020/12/16 08:56:37;;;;;;;27.42;20.45;;;9.80;83.10;;;;;;5055515;28;20067;-61
2020/12/16 08:59:04;;;;;;;25.27;20.65;;;9.70;83.30;;;;;;5072741;28;20048;-63
2020/12/16 09:01:30;;;;;;;26.35;20.75;;;9.70;83.10;;;;;;5072167;28;20036;-63
2020/12/16 09:03:56;;;;;;;25.13;20.33;;;9.80;83.00;;;;;;5073122;28;20037;-61
2020/12/16 09:06:22;;;;;;;27.25;20.67;;;9.80;82.90;;;;;;5060940;28;20044;-62
2020/12/16 09:08:48;;;;;;;27.58;21.42;;;9.90;82.70;;;;;;5035734;28;20032;-61
2020/12/16 09:11:20;;;;;;;27.63;21.30;;;9.90;82.60;;;;;;5052240;28;20110;-62
2020/12/16 09:13:47;;;;;;;27.17;22.10;;;10.00;82.30;;;;;;5066743;28;20032;-62
2020/12/16 09:16:21;;;;;;;27.15;21.85;;;10.10;82.00;;;;;;5071768;28;20078;-62
2020/12/16 09:18:53;;;;;;;23.77;19.02;;;10.00;82.10;;;;;;5039471;28;20028;-62
2020/12/16 09:21:35;;;;;;;26.83;22.30;;;10.00;82.10;;;;;;5072470;28;20411;-63
2020/12/16 09:24:01;;;;;;;32.97;23.83;;;10.00;81.90;;;;;;5072537;28;20032;-63
2020/12/16 09:26:43;;;;;;;28.58;23.05;;;10.10;81.80;;;;;;5072743;28;20529;-63
2020/12/16 09:29:21;;;;;;;28.63;22.13;;;10.20;81.60;;;;;;5072651;28;20025;-62
2020/12/16 09:31:52;;;;;;;31.42;23.92;;;10.30;80.90;;;;;;5067672;28;20404;-63
2020/12/16 09:34:20;;;;;;;29.05;23.02;;;10.40;80.60;;;;;;5052978;28;20124;-64
2020/12/16 09:36:46;;;;;;;33.10;25.85;;;10.50;80.40;;;;;;5071059;28;20115;-64
2020/12/16 09:39:18;;;;;;;30.40;24.15;;;10.50;80.10;;;;;;5054302;28;20534;-63
2020/12/16 09:41:49;;;;;;;30.15;22.77;;;10.60;80.10;;;;;;5071946;28;20036;-63
2020/12/16 09:44:31;;;;;;;31.20;23.52;;;10.60;79.90;;;;;;5072074;28;20036;-63
2020/12/16 09:47:16;;;;;;;28.80;22.30;;;10.70;79.60;;;;;;5071407;28;20119;-63
2020/12/16 09:49:44;;;;;;;31.52;25.20;;;10.70;79.50;;;;;;5052063;28;20180;-63
2020/12/16 09:52:33;;;;;;;27.83;22.00;;;10.70;79.30;;;;;;5072900;28;20611;-63
2020/12/16 09:55:21;;;;;;;27.17;21.85;;;10.80;79.30;;;;;;5071939;28;20494;-62
2020/12/16 09:58:01;;;;;;;28.23;21.83;;;10.80;79.40;;;;;;5072095;28;20120;-61
2020/12/16 10:00:28;;;;;;;27.35;21.67;;;10.80;79.30;;;;;;5054139;28;20037;-63
2020/12/16 10:03:07;;;;;;;25.90;21.77;;;10.90;79.20;;;;;;5072560;28;20037;-62
2020/12/16 10:05:34;;;;;;;26.75;22.30;;;10.90;79.10;;;;;;5054721;28;20040;-63
2020/12/16 10:08:05;;;;;;;28.98;23.77;;;11.10;78.60;;;;;;5054295;28;20029;-60
2020/12/16 10:10:32;;;;;;;28.25;21.67;;;11.10;78.30;;;;;;5071869;28;20036;-62
2020/12/16 10:12:57;;;;;;;26.92;21.48;;;11.10;78.00;;;;;;5071316;28;20456;-61
2020/12/16 10:15:23;;;;;;;26.92;22.95;;;11.10;78.20;;;;;;5071712;28;20066;-61
2020/12/16 10:17:53;;;;;;;28.00;22.67;;;11.00;78.60;;;;;;5072246;28;20040;-61
2020/12/16 10:20:25;;;;;;;28.05;21.55;;;11.10;78.60;;;;;;5055277;28;20029;-62
2020/12/16 10:22:51;;;;;;;29.20;22.17;;;11.10;78.70;;;;;;5072374;28;20032;-61
2020/12/16 10:25:17;;;;;;;27.42;21.63;;;11.10;78.50;;;;;;5053595;28;20433;-61
2020/12/16 10:27:43;;;;;;;25.67;20.90;;;11.20;78.40;;;;;;5036813;28;20556;-61
2020/12/16 10:30:09;;;;;;;27.52;21.45;;;11.20;78.20;;;;;;5053950;28;20081;-62
2020/12/16 10:32:35;;;;;;;27.27;20.70;;;11.20;78.20;;;;;;5071272;28;20036;-62
2020/12/16 10:35:02;;;;;;;25.42;20.70;;;11.30;78.10;;;;;;5060570;28;20040;-61
2020/12/16 10:37:28;;;;;;;25.13;21.38;;;11.30;78.00;;;;;;5055702;28;20037;-61
2020/12/16 10:39:54;;;;;;;26.20;21.17;;;11.30;78.00;;;;;;5051256;28;20045;-63
2020/12/16 10:42:23;;;;;;;27.92;21.90;;;11.30;78.10;;;;;;5049409;28;20112;-63
2020/12/16 10:44:49;;;;;;;28.15;22.17;;;11.30;78.00;;;;;;5051073;28;20033;-61
2020/12/16 10:48:07;;;;;;;26.25;21.55;;;11.40;78.10;;;;;;5067239;28;20679;-62
2020/12/16 10:50:33;;;;;;;25.67;21.38;;;11.40;78.00;;;;;;5077931;28;20036;-63
2020/12/16 10:53:00;;;;;;;25.90;21.92;;;11.60;77.70;;;;;;5054929;28;20491;-63
2020/12/16 10:55:28;;;;;;;30.38;23.10;;;11.60;77.30;;;;;;5071683;28;20507;-62
2020/12/16 10:57:54;;;;;;;29.58;23.50;;;11.70;76.90;;;;;;5071325;28;20060;-62
2020/12/16 11:00:20;;;;;;;28.85;23.52;;;11.60;77.00;;;;;;5053175;28;20040;-61
2020/12/16 11:02:48;;;;;;;26.42;21.48;;;11.60;77.30;;;;;;5070055;28;20044;-61
2020/12/16 11:05:14;;;;;;;29.33;23.58;;;11.50;77.60;;;;;;5071351;28;20033;-60
2020/12/16 11:07:39;;;;;;;29.42;23.05;;;11.50;77.50;;;;;;5070973;28;20044;-62
2020/12/16 11:10:05;;;;;;;28.50;22.65;;;11.60;77.70;;;;;;5054797;28;20043;-61
2020/12/16 11:12:31;;;;;;;30.58;24.45;;;11.60;77.40;;;;;;5071161;28;20231;-61
2020/12/16 11:14:56;;;;;;;31.38;24.65;;;11.60;77.50;;;;;;5069733;28;20063;-61
2020/12/16 11:17:22;;;;;;;32.40;23.75;;;11.60;77.30;;;;;;5071139;28;20036;-64
2020/12/16 11:19:47;;;;;;;29.85;23.92;;;11.60;77.40;;;;;;5070437;28;20028;-58
2020/12/16 11:22:13;;;;;;;25.67;21.83;;;11.70;76.90;;;;;;5070977;28;20044;-61
2020/12/16 11:24:39;;;;;;;28.42;21.98;;;11.80;76.80;;;;;;5071516;28;20128;-60
2020/12/16 11:27:04;;;;;;;27.88;22.42;;;11.90;76.80;;;;;;5071261;28;20460;-64
2020/12/16 11:29:30;;;;;;;28.50;21.75;;;11.90;76.60;;;;;;5070953;28;20108;-61
2020/12/16 11:31:57;;;;;;;28.15;22.60;;;12.00;76.30;;;;;;5059253;28;20033;-60
2020/12/16 11:34:25;;;;;;;27.25;22.30;;;12.10;75.90;;;;;;5051563;28;20499;-62
2020/12/16 11:36:54;;;;;;;25.30;19.95;;;12.20;75.70;;;;;;5061148;28;20029;-62
2020/12/16 11:39:19;;;;;;;33.83;23.98;;;12.30;75.60;;;;;;5057354;28;20036;-60
2020/12/16 11:41:47;;;;;;;28.58;23.10;;;12.30;75.20;;;;;;5074704;28;20048;-61
2020/12/16 11:44:14;;;;;;;26.33;21.77;;;12.30;75.30;;;;;;5074334;28;20178;-63
2020/12/16 11:46:41;;;;;;;30.20;23.67;;;12.30;75.30;;;;;;5076651;28;20029;-58
2020/12/16 11:49:07;;;;;;;26.75;22.80;;;12.40;75.20;;;;;;5080595;28;20029;-62
2020/12/16 11:51:32;;;;;;;28.48;23.00;;;12.40;75.10;;;;;;5076850;28;20112;-62
2020/12/16 11:53:58;;;;;;;27.98;22.90;;;12.40;75.20;;;;;;5074255;28;20040;-62
2020/12/16 11:56:24;;;;;;;27.95;23.55;;;12.40;75.20;;;;;;5074550;28;20063;-62
2020/12/16 11:58:54;;;;;;;30.80;23.75;;;12.50;74.90;;;;;;5070313;28;20032;-63
2020/12/16 12:01:19;;;;;;;29.83;24.25;;;12.50;74.80;;;;;;5064031;28;20487;-63
2020/12/16 12:03:45;;;;;;;28.75;22.30;;;12.50;74.50;;;;;;5053264;28;20097;-62
2020/12/16 12:06:13;;;;;;;28.08;21.92;;;12.60;74.30;;;;;;5070787;28;20051;-61
2020/12/16 12:08:39;;;;;;;29.88;22.23;;;12.70;74.20;;;;;;5062818;28;20544;-61
2020/12/16 12:11:05;;;;;;;27.88;21.73;;;12.60;75.00;;;;;;5073225;28;20075;-61
2020/12/16 12:13:31;;;;;;;28.73;22.88;;;12.60;74.90;;;;;;5073193;28;20488;-61
2020/12/16 12:15:57;;;;;;;26.33;21.70;;;12.60;74.60;;;;;;5073860;28;20024;-62
2020/12/16 12:18:23;;;;;;;34.03;24.13;;;12.50;75.00;;;;;;5071832;28;20040;-64
2020/12/16 12:20:49;;;;;;;32.53;23.63;;;12.50;75.00;;;;;;5071634;28;20048;-62
2020/12/16 12:23:14;;;;;;;27.15;22.88;;;12.50;75.80;;;;;;5072857;28;20044;-61
2020/12/16 12:25:40;;;;;;;30.58;22.88;;;12.50;75.20;;;;;;5053066;28;20480;-62
2020/12/16 12:28:06;;;;;;;30.08;24.10;;;12.50;75.10;;;;;;5073954;28;20131;-64
2020/12/16 12:30:31;;;;;;;29.23;23.50;;;12.60;74.90;;;;;;5062917;28;20104;-64
2020/12/16 12:32:57;;;;;;;29.33;22.95;;;12.60;74.80;;;;;;5055349;28;20485;-66
2020/12/16 12:35:26;;;;;;;30.42;23.42;;;12.80;76.20;;;;;;5045264;28;20093;-64
2020/12/16 12:37:52;;;;;;;28.95;24.42;;;12.90;75.00;;;;;;5074373;28;20049;-64
2020/12/16 12:40:17;;;;;;;32.35;25.70;;;12.90;74.00;;;;;;5073765;28;20032;-64